createdAt,value
2019-06-20T00:00:50.237Z,25.16
2019-06-20T00:03:25.901Z,24.95
2019-06-20T00:05:59.281Z,24.76
2019-06-20T00:08:32.655Z,24.59
2019-06-20T00:11:08.003Z,24.47
2019-06-20T00:13:42.433Z,24.30
2019-06-20T00:16:16.893Z,24.21
2019-06-20T00:18:50.426Z,24.11
2019-06-20T00:21:27.030Z,23.97
2019-06-20T00:24:02.692Z,23.88
2019-06-20T00:26:38.581Z,23.79
2019-06-20T00:29:14.688Z,23.71
2019-06-20T00:31:48.169Z,23.65
2019-06-20T00:34:21.905Z,23.56
2019-06-20T00:36:55.357Z,23.51
2019-06-20T00:39:28.789Z,23.44
2019-06-20T00:42:02.244Z,23.34
2019-06-20T00:44:35.586Z,23.33
2019-06-20T00:47:10.003Z,25.30
2019-06-20T00:49:45.974Z,26.38
2019-06-20T00:52:21.641Z,25.72
2019-06-20T00:54:56.736Z,25.11
2019-06-20T00:57:30.283Z,24.73
2019-06-20T01:00:06.936Z,24.50
2019-06-20T01:02:44.322Z,24.31
2019-06-20T01:05:17.799Z,24.11
2019-06-20T01:07:58.518Z,23.96
2019-06-20T01:10:29.663Z,23.85
2019-06-20T01:13:04.611Z,23.73
2019-06-20T01:15:41.088Z,23.61
2019-06-20T01:18:14.355Z,23.52
2019-06-20T01:20:50.167Z,23.44
2019-06-20T01:23:28.430Z,23.34
2019-06-20T01:26:08.902Z,23.25
2019-06-20T01:28:44.923Z,23.18
2019-06-20T01:31:18.437Z,23.13
2019-06-20T01:33:51.752Z,25.27
2019-06-20T01:36:25.138Z,28.23
2019-06-20T01:38:58.355Z,28.15
2019-06-20T01:41:31.696Z,27.01
2019-06-20T01:44:05.113Z,26.23
2019-06-20T01:46:38.418Z,25.68
2019-06-20T01:49:12.098Z,25.30
2019-06-20T01:51:45.490Z,25.00
2019-06-20T01:54:18.777Z,24.75
2019-06-20T01:56:52.146Z,24.54
2019-06-20T01:59:25.464Z,24.34
2019-06-20T02:01:58.886Z,24.17
2019-06-20T02:04:32.238Z,24.00
2019-06-20T02:07:06.641Z,23.88
2019-06-20T02:09:40.072Z,23.69
2019-06-20T02:12:13.435Z,23.55
2019-06-20T02:14:46.818Z,23.44
2019-06-20T02:17:20.765Z,23.30
2019-06-20T02:19:54.333Z,23.20
2019-06-20T02:22:27.711Z,23.11
2019-06-20T02:25:00.981Z,23.00
2019-06-20T02:27:34.201Z,25.17
2019-06-20T02:30:07.868Z,28.03
2019-06-20T02:32:43.350Z,27.98
2019-06-20T02:35:19.939Z,26.83
2019-06-20T02:37:55.910Z,26.00
2019-06-20T02:40:31.538Z,25.47
2019-06-20T02:43:06.352Z,25.07
2019-06-20T02:45:40.459Z,24.78
2019-06-20T02:48:16.587Z,24.52
2019-06-20T02:50:53.581Z,24.33
2019-06-20T02:53:28.206Z,24.13
2019-06-20T02:56:02.132Z,23.95
2019-06-20T02:58:39.988Z,23.79
2019-06-20T03:01:16.830Z,23.59
2019-06-20T03:03:54.301Z,23.48
2019-06-20T03:06:41.566Z,23.34
2019-06-20T03:09:07.519Z,23.21
2019-06-20T03:11:43.156Z,25.24
2019-06-20T03:14:18.620Z,28.16
2019-06-20T03:16:58.512Z,28.05
2019-06-20T03:19:32.021Z,26.83
2019-06-20T03:22:06.062Z,25.97
2019-06-20T03:24:42.598Z,25.40
2019-06-20T03:27:17.642Z,24.95
2019-06-20T03:29:52.714Z,24.59
2019-06-20T03:32:29.181Z,24.33
2019-06-20T03:35:02.810Z,24.10
2019-06-20T03:37:40.482Z,23.88
2019-06-20T03:40:16.642Z,23.68
2019-06-20T03:42:50.533Z,23.48
2019-06-20T03:45:33.264Z,23.33
2019-06-20T03:48:07.992Z,23.17
2019-06-20T03:50:44.694Z,23.03
2019-06-20T03:53:21.383Z,22.89
2019-06-20T03:55:56.595Z,22.76
2019-06-20T03:58:35.958Z,24.83
2019-06-20T04:01:09.592Z,25.83
2019-06-20T04:03:44.003Z,25.07
2019-06-20T04:06:36.014Z,24.44
2019-06-20T04:09:02.127Z,24.01
2019-06-20T04:11:38.679Z,23.76
2019-06-20T04:14:13.779Z,23.54
2019-06-20T04:16:49.487Z,23.35
2019-06-20T04:19:24.350Z,23.23
2019-06-20T04:22:04.447Z,23.11
2019-06-20T04:24:41.873Z,22.94
2019-06-20T04:27:16.423Z,22.85
2019-06-20T04:29:55.192Z,22.76
2019-06-20T04:32:30.702Z,22.69
2019-06-20T04:35:06.003Z,24.82
2019-06-20T04:37:39.616Z,25.85
2019-06-20T04:40:14.768Z,25.09
2019-06-20T04:42:50.959Z,24.52
2019-06-20T04:45:58.896Z,24.16
2019-06-20T04:48:33.260Z,23.90
2019-06-20T04:51:10.456Z,23.73
2019-06-20T04:53:43.793Z,23.61
2019-06-20T04:56:17.229Z,23.52
2019-06-20T04:58:50.664Z,23.44
2019-06-20T05:01:24.004Z,23.35
2019-06-20T05:03:58.205Z,23.33
2019-06-20T05:06:31.799Z,23.27
2019-06-20T05:09:06.988Z,23.21
2019-06-20T05:11:40.419Z,23.21
2019-06-20T05:14:13.717Z,23.24
2019-06-20T05:16:51.561Z,23.24
2019-06-20T05:19:25.247Z,23.27
2019-06-20T05:21:58.656Z,23.35
2019-06-20T05:24:32.138Z,23.38
2019-06-20T05:27:05.658Z,23.42
2019-06-20T05:29:40.109Z,23.51
2019-06-20T05:32:21.982Z,23.61
2019-06-20T05:35:08.615Z,23.66
2019-06-20T05:37:42.242Z,23.78
2019-06-20T05:40:16.626Z,23.86
2019-06-20T05:42:50.770Z,23.97
2019-06-20T05:45:24.215Z,24.07
2019-06-20T05:47:57.885Z,24.17
2019-06-20T05:50:33.621Z,24.28
2019-06-20T05:53:08.564Z,24.38
2019-06-20T05:55:42.036Z,24.50
2019-06-20T05:58:19.684Z,24.65
2019-06-20T06:00:53.729Z,24.76
2019-06-20T06:03:29.083Z,24.89
2019-06-20T06:06:05.707Z,24.99
2019-06-20T06:08:42.766Z,25.11
2019-06-20T06:11:16.958Z,25.26
2019-06-20T06:13:53.539Z,25.40
2019-06-20T06:16:31.465Z,25.51
2019-06-20T06:19:06.923Z,25.65
2019-06-20T06:21:41.985Z,25.78
2019-06-20T06:24:21.180Z,25.91
2019-06-20T06:26:53.733Z,26.06
2019-06-20T06:29:33.147Z,26.16
2019-06-20T06:32:09.096Z,26.28
2019-06-20T06:34:45.710Z,26.40
2019-06-20T06:37:19.158Z,26.51
2019-06-20T06:39:55.050Z,26.62
2019-06-20T06:42:29.699Z,26.77
2019-06-20T06:45:03.141Z,26.91
2019-06-20T06:47:46.981Z,26.99
2019-06-20T06:50:26.220Z,27.14
2019-06-20T06:53:01.310Z,27.27
2019-06-20T06:55:35.602Z,27.37
2019-06-20T06:58:09.035Z,27.51
2019-06-20T07:00:45.386Z,27.62
2019-06-20T07:03:19.737Z,27.72
2019-06-20T07:05:57.427Z,27.86
2019-06-20T07:08:32.280Z,27.96
2019-06-20T07:11:06.345Z,28.13
2019-06-20T07:13:44.411Z,28.19
2019-06-20T07:16:18.509Z,28.30
2019-06-20T07:19:01.108Z,28.41
2019-06-20T07:21:34.761Z,28.47
2019-06-20T07:24:09.806Z,28.52
2019-06-20T07:26:44.795Z,28.63
2019-06-20T07:29:18.358Z,28.70
2019-06-20T07:31:53.700Z,28.75
2019-06-20T07:34:40.768Z,28.86
2019-06-20T07:37:10.840Z,28.91
2019-06-20T07:39:53.441Z,28.96
2019-06-20T07:42:33.303Z,29.05
2019-06-20T07:45:11.801Z,29.12
2019-06-20T07:47:55.078Z,29.19
2019-06-20T08:01:35.348Z,29.53
2019-06-20T08:04:09.064Z,29.57
2019-06-20T08:06:43.455Z,29.64
2019-06-20T08:09:16.828Z,29.69
2019-06-20T08:11:50.393Z,29.78
2019-06-20T08:14:23.935Z,29.85
2019-06-20T08:16:58.397Z,29.92
2019-06-20T08:19:32.514Z,30.02
2019-06-20T08:22:09.947Z,30.09
2019-06-20T08:24:44.548Z,30.19
2019-06-20T08:27:19.546Z,30.24
2019-06-20T08:29:52.829Z,30.33
2019-06-20T08:32:26.209Z,30.39
2019-06-20T08:35:00.545Z,30.44
2019-06-20T08:37:34.219Z,30.49
2019-06-20T08:40:08.486Z,30.56
2019-06-20T08:42:42.477Z,30.61
2019-06-20T08:45:17.656Z,30.71
2019-06-20T08:47:50.979Z,30.75
2019-06-20T08:50:24.707Z,30.82
2019-06-20T08:52:58.504Z,30.89
2019-06-20T08:55:32.917Z,30.96
2019-06-20T08:58:06.369Z,31.04
2019-06-20T09:00:41.324Z,31.11
2019-06-20T09:03:14.759Z,31.18
2019-06-20T09:05:48.025Z,31.25
2019-06-20T09:08:21.630Z,31.33
2019-06-20T09:10:55.705Z,31.42
2019-06-20T09:13:29.036Z,31.49
2019-06-20T09:16:03.055Z,31.56
2019-06-20T09:18:36.444Z,31.63
2019-06-20T09:21:09.612Z,31.68
2019-06-20T09:23:43.023Z,31.74
2019-06-20T09:26:16.371Z,31.78
2019-06-20T09:28:51.019Z,31.85
2019-06-20T09:31:24.505Z,31.91
2019-06-20T09:34:03.710Z,31.99
2019-06-20T09:36:35.539Z,32.07
2019-06-20T09:39:09.844Z,32.15
2019-06-20T09:41:43.129Z,32.28
2019-06-20T09:44:16.615Z,32.31
2019-06-20T09:46:51.187Z,32.36
2019-06-20T09:49:25.033Z,32.42
2019-06-20T09:51:58.705Z,32.44
2019-06-20T09:54:32.488Z,32.52
2019-06-20T09:57:06.007Z,32.53
2019-06-20T09:59:40.797Z,32.59
2019-06-20T10:02:14.205Z,32.65
2019-06-20T10:04:49.158Z,32.73
2019-06-20T10:07:22.544Z,32.80
2019-06-20T10:09:56.961Z,32.86
2019-06-20T10:12:30.327Z,32.94
2019-06-20T10:15:03.605Z,33.01
2019-06-20T10:17:36.978Z,33.07
2019-06-20T10:20:11.020Z,33.13
2019-06-20T10:22:45.879Z,33.21
2019-06-20T10:25:23.285Z,33.26
2019-06-20T10:27:57.906Z,33.32
2019-06-20T10:30:31.770Z,33.41
2019-06-20T10:33:05.642Z,33.46
2019-06-20T10:35:39.052Z,33.49
2019-06-20T10:38:12.387Z,33.52
2019-06-20T10:40:46.359Z,33.58
2019-06-20T10:43:20.113Z,33.63
2019-06-20T10:45:53.552Z,33.66
2019-06-20T10:48:26.959Z,33.68
2019-06-20T10:51:19.037Z,33.70
2019-06-20T10:53:53.414Z,33.65
2019-06-20T10:56:26.836Z,33.65
2019-06-20T10:59:00.347Z,33.63
2019-06-20T11:01:35.055Z,33.66
2019-06-20T11:04:10.550Z,33.70
2019-06-20T11:06:47.612Z,33.75
2019-06-20T11:09:24.057Z,33.80
2019-06-20T11:11:58.325Z,33.81
2019-06-20T11:14:34.270Z,33.87
2019-06-20T11:17:07.898Z,33.94
2019-06-20T11:19:41.575Z,33.99
2019-06-20T11:22:15.260Z,34.02
2019-06-20T11:24:50.168Z,34.06
2019-06-20T11:27:24.396Z,34.08
2019-06-20T11:29:57.911Z,34.13
2019-06-20T11:32:31.348Z,34.17
2019-06-20T11:35:05.656Z,34.23
2019-06-20T11:37:39.679Z,34.27
2019-06-20T11:40:16.010Z,34.31
2019-06-20T11:42:49.712Z,34.37
2019-06-20T11:45:24.576Z,34.38
2019-06-20T11:47:59.233Z,34.42
2019-06-20T11:50:35.011Z,34.42
2019-06-20T11:53:09.082Z,34.41
2019-06-20T11:55:42.917Z,34.42
2019-06-20T11:58:16.641Z,34.44
2019-06-20T12:01:03.041Z,34.44
2019-06-20T12:03:26.198Z,34.42
2019-06-20T12:05:59.677Z,34.44
2019-06-20T12:08:34.547Z,34.48
2019-06-20T12:11:08.226Z,34.47
2019-06-20T12:13:42.102Z,34.51
2019-06-20T12:16:15.508Z,34.55
2019-06-20T12:18:49.443Z,34.55
2019-06-20T12:21:22.930Z,34.54
2019-06-20T12:23:56.469Z,34.51
2019-06-20T12:26:29.972Z,34.44
2019-06-20T12:29:03.402Z,34.40
2019-06-20T12:31:36.881Z,34.32
2019-06-20T12:34:10.582Z,34.27
2019-06-20T12:36:44.426Z,34.20
2019-06-20T12:39:17.730Z,34.15
2019-06-20T12:41:51.035Z,34.13
2019-06-20T12:44:26.259Z,34.10
2019-06-20T12:46:59.729Z,34.08
2019-06-20T12:49:33.580Z,34.11
2019-06-20T12:52:06.926Z,34.13
2019-06-20T12:54:43.232Z,34.14
2019-06-20T12:57:16.821Z,34.17
2019-06-20T12:59:50.061Z,34.15
2019-06-20T13:02:23.411Z,34.21
2019-06-20T13:04:57.021Z,34.23
2019-06-20T13:07:30.779Z,34.23
2019-06-20T13:10:04.118Z,34.20
2019-06-20T13:12:40.707Z,34.15
2019-06-20T13:15:13.935Z,34.08
2019-06-20T13:17:48.889Z,34.04
2019-06-20T13:20:23.777Z,33.99
2019-06-20T13:22:58.052Z,33.92
2019-06-20T13:25:35.013Z,33.93
2019-06-20T13:28:10.998Z,33.92
2019-06-20T13:30:48.611Z,33.93
2019-06-20T13:33:19.892Z,33.97
2019-06-20T13:35:55.659Z,34.04
2019-06-20T13:38:29.876Z,34.04
2019-06-20T13:41:06.147Z,34.07
2019-06-20T13:43:39.387Z,34.07
2019-06-20T13:46:12.617Z,34.06
2019-06-20T13:48:47.492Z,34.02
2019-06-20T13:51:20.770Z,34.00
2019-06-20T13:53:53.886Z,33.94
2019-06-20T13:56:27.068Z,33.94
2019-06-20T13:59:01.365Z,33.90
2019-06-20T14:01:34.524Z,33.86
2019-06-20T14:04:07.876Z,33.79
2019-06-20T14:06:42.096Z,33.70
2019-06-20T14:09:16.685Z,33.60
2019-06-20T14:11:51.440Z,33.52
2019-06-20T14:14:24.627Z,33.46
2019-06-20T14:16:58.634Z,33.35
2019-06-20T14:19:31.785Z,33.25
2019-06-20T14:22:06.220Z,33.13
2019-06-20T14:24:39.277Z,33.07
2019-06-20T14:27:12.359Z,32.98
2019-06-20T14:29:46.528Z,32.88
2019-06-20T14:32:22.352Z,32.78
2019-06-20T14:34:54.428Z,32.69
2019-06-20T14:37:27.534Z,32.60
2019-06-20T14:40:00.760Z,32.52
2019-06-20T14:42:34.021Z,32.42
2019-06-20T14:45:07.628Z,32.32
2019-06-20T14:47:40.791Z,32.22
2019-06-20T14:50:15.531Z,32.12
2019-06-20T14:52:50.012Z,31.99
2019-06-20T14:55:29.870Z,31.80
2019-06-20T14:58:03.337Z,31.57
2019-06-20T15:00:36.593Z,31.36
2019-06-20T15:03:09.825Z,31.12
2019-06-20T15:05:44.775Z,30.87
2019-06-20T15:08:18.419Z,30.61
2019-06-20T15:10:51.925Z,30.39
2019-06-20T15:13:26.199Z,30.15
2019-06-20T15:15:59.438Z,29.96
2019-06-20T15:18:32.877Z,29.77
2019-06-20T15:21:06.195Z,29.60
2019-06-20T15:23:39.369Z,29.39
2019-06-20T15:26:12.642Z,29.22
2019-06-20T15:28:47.650Z,28.99
2019-06-20T15:31:21.048Z,28.84
2019-06-20T15:33:55.146Z,28.70
2019-06-20T15:36:28.765Z,28.52
2019-06-20T15:39:01.998Z,28.37
2019-06-20T15:41:36.823Z,28.24
2019-06-20T15:44:10.149Z,28.15
2019-06-20T15:46:43.372Z,27.98
2019-06-20T15:49:16.714Z,27.88
2019-06-20T15:51:49.952Z,27.72
2019-06-20T15:54:24.553Z,27.61
2019-06-20T15:56:57.830Z,27.51
2019-06-20T15:59:31.060Z,27.41
2019-06-20T16:02:04.258Z,27.31
2019-06-20T16:04:37.564Z,27.21
2019-06-20T16:07:11.811Z,27.17
2019-06-20T16:09:45.070Z,27.12
2019-06-20T16:12:18.296Z,27.06
2019-06-20T16:14:51.573Z,27.03
2019-06-20T16:17:24.769Z,27.05
2019-06-20T16:19:57.992Z,27.03
2019-06-20T16:22:31.118Z,27.03
2019-06-20T16:25:04.456Z,27.05
2019-06-20T16:27:37.741Z,27.06
2019-06-20T16:30:11.921Z,27.12
2019-06-20T16:32:45.225Z,27.12
2019-06-20T16:35:19.797Z,29.13
2019-06-20T16:37:53.022Z,29.94
2019-06-20T16:40:44.204Z,29.33
2019-06-20T16:43:17.525Z,28.82
2019-06-20T16:45:50.610Z,28.54
2019-06-20T16:48:23.807Z,28.36
2019-06-20T16:50:56.998Z,28.23
2019-06-20T16:53:30.230Z,28.13
2019-06-20T16:56:03.426Z,28.06
2019-06-20T16:58:36.518Z,27.98
2019-06-20T17:01:09.768Z,27.92
2019-06-20T17:03:42.918Z,27.86
2019-06-20T17:06:16.080Z,27.79
2019-06-20T17:08:50.285Z,27.75
2019-06-20T17:11:23.535Z,27.72
2019-06-20T17:13:56.818Z,27.72
2019-06-20T17:16:29.977Z,27.71
2019-06-20T17:19:03.122Z,27.67
2019-06-20T17:21:37.386Z,27.67
2019-06-20T17:24:10.730Z,27.64
2019-06-20T17:26:43.890Z,27.62
2019-06-20T17:29:17.115Z,27.61
2019-06-20T17:31:50.350Z,27.58
2019-06-20T17:34:23.489Z,27.58
2019-06-20T17:36:56.816Z,27.57
2019-06-20T17:39:29.925Z,27.54
2019-06-20T17:42:03.159Z,27.53
2019-06-20T17:44:36.242Z,27.50
2019-06-20T17:47:09.347Z,27.48
2019-06-20T17:49:42.591Z,27.48
2019-06-20T17:52:15.708Z,27.44
2019-06-20T17:54:48.881Z,27.41
2019-06-20T17:57:22.047Z,27.43
2019-06-20T17:59:55.336Z,27.41
2019-06-20T18:02:28.541Z,27.43
2019-06-20T18:05:03.397Z,27.43
2019-06-20T18:07:36.572Z,27.41
2019-06-20T18:10:10.490Z,27.40
2019-06-20T18:12:43.626Z,27.37
2019-06-20T18:15:17.357Z,27.38
2019-06-20T18:17:50.671Z,27.34
2019-06-20T18:20:25.119Z,27.37
2019-06-20T18:22:58.402Z,27.34
2019-06-20T18:25:31.887Z,27.33
2019-06-20T18:28:05.189Z,27.34
2019-06-20T18:30:44.527Z,27.33
2019-06-20T18:33:17.750Z,27.31
2019-06-20T18:35:51.023Z,27.33
2019-06-20T18:38:24.217Z,27.29
2019-06-20T18:40:58.461Z,27.27
2019-06-20T18:43:31.732Z,27.27
2019-06-20T18:46:04.839Z,27.21
2019-06-20T18:48:37.983Z,27.21
2019-06-20T18:51:11.047Z,27.19
2019-06-20T18:53:44.180Z,27.14
2019-06-20T18:56:17.336Z,27.12
2019-06-20T18:58:50.498Z,27.07
2019-06-20T19:01:23.773Z,27.05
2019-06-20T19:03:57.035Z,26.99
2019-06-20T19:06:35.879Z,26.98
2019-06-20T19:09:08.591Z,26.93
2019-06-20T19:11:42.824Z,26.92
2019-06-20T19:14:16.011Z,26.88
2019-06-20T19:16:49.286Z,26.83
2019-06-20T19:19:22.490Z,26.79
2019-06-20T19:21:55.616Z,26.77
2019-06-20T19:24:28.837Z,26.72
2019-06-20T19:27:01.998Z,26.69
2019-06-20T19:29:35.201Z,26.64
2019-06-20T19:32:09.354Z,26.55
2019-06-20T19:34:43.039Z,26.52
2019-06-20T19:37:16.737Z,26.46
2019-06-20T19:39:52.957Z,26.41
2019-06-20T19:42:28.117Z,26.34
2019-06-20T19:45:04.371Z,26.30
2019-06-20T19:47:37.610Z,26.24
2019-06-20T19:50:11.613Z,26.17
2019-06-20T19:52:44.923Z,26.13
2019-06-20T19:55:18.865Z,26.09
2019-06-20T19:57:51.950Z,26.02
2019-06-20T20:00:25.451Z,25.95
2019-06-20T20:02:59.796Z,25.88
2019-06-20T20:05:33.053Z,25.83
2019-06-20T20:08:06.657Z,25.75
2019-06-20T20:10:46.109Z,25.66
2019-06-20T20:13:19.609Z,25.64
2019-06-20T20:15:52.793Z,25.57
2019-06-20T20:18:28.656Z,25.51
2019-06-20T20:21:03.192Z,27.69
2019-06-20T20:23:36.601Z,28.71
2019-06-20T20:26:09.785Z,27.98
2019-06-20T20:28:43.629Z,27.40
2019-06-20T20:31:16.963Z,27.05
2019-06-20T20:34:19.931Z,26.78
2019-06-20T20:36:54.848Z,26.52
2019-06-20T20:39:29.602Z,26.33
2019-06-20T20:42:03.028Z,26.17
2019-06-20T20:44:37.467Z,26.02
2019-06-20T20:47:10.956Z,25.88
2019-06-20T20:49:44.470Z,25.75
2019-06-20T20:52:18.882Z,25.65
2019-06-20T20:54:54.767Z,25.52
2019-06-20T20:57:33.011Z,25.40
2019-06-20T21:00:09.028Z,25.27
2019-06-20T21:02:43.142Z,25.17
2019-06-20T21:05:16.473Z,25.06
2019-06-20T21:07:49.925Z,24.99
2019-06-20T21:10:24.874Z,27.14
2019-06-20T21:12:58.076Z,29.95
2019-06-20T21:15:31.568Z,29.83
2019-06-20T21:18:04.920Z,28.74
2019-06-20T21:20:38.104Z,27.93
2019-06-20T21:23:11.596Z,27.43
2019-06-20T21:25:44.843Z,27.05
2019-06-20T21:28:18.118Z,26.75
2019-06-20T21:30:51.384Z,26.50
2019-06-20T21:33:25.215Z,26.26
2019-06-20T21:36:08.431Z,26.04
2019-06-20T21:38:33.710Z,25.82
2019-06-20T21:41:07.102Z,25.66
2019-06-20T21:43:40.488Z,25.48
2019-06-20T21:46:13.694Z,25.33
2019-06-20T21:48:46.955Z,25.20
2019-06-20T21:51:20.273Z,26.96
2019-06-20T21:53:53.456Z,27.95
2019-06-20T21:56:26.600Z,27.23
2019-06-20T21:58:59.713Z,26.61
2019-06-20T22:01:33.157Z,26.19
2019-06-20T22:04:07.227Z,25.88
2019-06-20T22:06:40.462Z,25.62
2019-06-20T22:09:14.379Z,25.37
2019-06-20T22:11:47.973Z,25.17
2019-06-20T22:14:22.443Z,27.31
2019-06-20T22:16:55.595Z,28.22
2019-06-20T22:19:28.914Z,27.41
2019-06-20T22:22:02.102Z,26.74
2019-06-20T22:24:35.400Z,26.28
2019-06-20T22:27:08.618Z,25.93
2019-06-20T22:29:41.876Z,25.65
2019-06-20T22:32:15.181Z,25.40
2019-06-20T22:34:48.529Z,25.20
2019-06-20T22:37:21.726Z,24.99
2019-06-20T22:39:54.990Z,26.96
2019-06-20T22:42:28.400Z,27.88
2019-06-20T22:45:01.741Z,27.06
2019-06-20T22:47:36.066Z,26.36
2019-06-20T22:50:10.184Z,25.89
2019-06-20T22:52:43.546Z,25.54
2019-06-20T22:55:17.032Z,25.28
2019-06-20T22:57:50.349Z,25.03
2019-06-20T23:00:23.733Z,24.82
2019-06-20T23:02:57.275Z,26.72
2019-06-20T23:05:30.744Z,27.60
2019-06-20T23:08:04.337Z,26.79
2019-06-20T23:10:37.865Z,26.13
2019-06-20T23:13:11.288Z,25.62
2019-06-20T23:15:44.743Z,25.28
2019-06-20T23:18:17.982Z,24.96
2019-06-20T23:21:03.999Z,24.73
2019-06-20T23:23:26.126Z,24.50
2019-06-20T23:26:01.233Z,26.34
2019-06-20T23:28:34.501Z,29.07
2019-06-20T23:31:07.756Z,29.03
2019-06-20T23:33:40.852Z,27.81
2019-06-20T23:36:14.361Z,26.89
2019-06-20T23:38:47.527Z,26.27
2019-06-20T23:41:21.077Z,25.82
2019-06-20T23:43:54.395Z,25.45
2019-06-20T23:46:27.659Z,25.09
2019-06-20T23:49:00.998Z,24.79
2019-06-20T23:51:36.263Z,24.54
2019-06-20T23:54:09.373Z,24.33
2019-06-20T23:56:42.814Z,26.26
2019-06-20T23:59:16.043Z,28.98
